In Rescue
 
Open Full Screen Window  High Contrast Mode
Wind Gusting 00 knots
04
August 09, 2020 6:06 PM CDT
Weather Information
Wind Direction
  140 °
Wind Speed
  04 kt (5 mph)
Wind Gust
  00 kt (0 mph)
Altimeter
29.79 in
Visibility
10 SM
Temperature
26° C
79° F
Dewpoint
21° C
70° F
Humidity
74%
1hr Rain Fall
00.00 in.
24hr Rain Fall
00.22 in.
Sky Condition
Scattered @ 6,500 ft
VFR

METAR KFFM 092306Z AUTO 14004KT 10SM SCT065 26/21 A2979 RMK AO2

FAA Disclaimer: The data displayed is for advisory purposes only and is not to be used for flight planning or operations.